Extreme weather reports worldwide

Low visibility

Station
 
Location
 
Name
 
Wind
Knots
Gust
Knots
Vis
SM
Temp/Dew
C
Baro
inHg
METAR
 
OOM YCOM Cooma, AU Cooma Snowy Mountains Airport 0 0.06 3/3 29.91 YCOM 272030Z AUTO 00000KT 0100 // OVC001 03/03 Q1013
BJF ENBS Båtsfjord, NO Båtsfjord Airport 17 0.06 3/3 29.50 ENBS 272020Z 05017KT 0100 FG VV001 03/03 Q0999
KMWN 31 45 0.06 11/11 KMWN 271957Z 24031G45KT 1/16SM -SHRA FG VV000 11/11 RMK SHRAB40
CTS RJCC Chitose / Tomakomai, JP New Chitose Airport 5 0.12 13/13 29.38 RJCC 272030Z 13005KT 0200 R19R/0275V0400N R19L/0550V0800N FG VV001 13/13 Q0995
CPT FACT Cape Town, ZA Cape Town International Airport 2 0.12 13/12 29.97 FACT 272000Z VRB02KT 0200 R01/0500 FG NSC 13/12 Q1015 NOSIG

Station
 
Location
 
Name
 
Wind
Knots
Gust
Knots
Vis
SM
Temp/Dew
C
Baro
inHg
METAR
 
JFK KJFK New York, US John F Kennedy International Airport 17 27 0.25 18/17 29.87 KJFK 272051Z 17017G27KT 1/4SM R04R/3500V6000FT BR BKN000 OVC004 19/18 A2987 RMK AO2 PK WND 18028/2032 SFC VIS 3/4 LTG DSNT SW-NW SLP113 BR BKN000 T01890178 56014
NPT KUUU Newport, US Newport State Airport 6 0.25 16/16 29.92 KUUU 272050Z AUTO 20006KT 1/4SM FG OVC002 16/16 A2992 RMK AO2
WFK KFVE Frenchville, US Northern Aroostook Regional Airport 7 0.25 16/16 29.73 KFVE 272048Z AUTO 14007KT 1/4SM -RA FG VV003 16/16 A2973 RMK AO2 P0001
KTQV 20 43 0.25 20/18 29.83 KTQV 272035Z AUTO 19020G43KT 160V240 M1/4SM FG OVC005 20/18 A2983 RMK A01
OTZ PAOT Kotzebue, US Ralph Wien Memorial Airport 7 0.25 -1/-1 30.04 PAOT 272029Z 25007KT 1/4SM R09/1200V1800FT FZFG VV002 M01/M01 A3004 RMK AO2 T10111011
YEK CYEK Arviat, CA Arviat Airport 15 0.25 -1/-2 29.95 CYEK 272026Z 19015KT 1/4SM FZFG VV002 M01/M02 A2995 RMK FG8 SLP145
KBOK 3 0.25 12/12 30.07 KBOK 272016Z AUTO 23003KT 1/4SM FG OVC002 12/12 A3007 RMK AO2 $
MCX URML Makhachkala, RU Uytash Airport 0 0.28 15/15 30.03 URML 272030Z 00000MPS 0450 0200SE R14/1100N FG SCT001 OVC006 15/15 Q1017 R14/01//70 TEMPO 0200 FG BKN002 RMK QBB050 MT OBSC QFE763/1017
NTL YWLM Williamtown, AU Newcastle Airport 8 0.43 13/13 29.91 YWLM 272036Z AUTO 30008KT 0700 FG OVC002 13/13 Q1013 RF00.0/000.2
MMU KMMU Morristown, US Morristown Municipal Airport 16 29 0.5 23/20 29.86 KMMU 272055Z 24016G29KT 1/2SM +TSRA BKN018 23/20 A2986
BID KBID Block Island, US Block Island State Airport 9 0.5 16/15 29.94 KBID 272046Z AUTO 20009KT 1/2SM FG OVC002 16/15 A2994 RMK AO2
KKA PAKK Koyuk, US Koyuk Alfred Adams Airport 7 0.5 2/2 30.07 PAKK 272039Z AUTO 18007KT 1/2SM FG OVC003 02/02 A3007 RMK AO2 FZRANO
ACK KACK Nantucket, US Nantucket Memorial Airport 12 0.5 16/15 29.95 KACK 272020Z 21012KT 1/2SM R24/2600V3500FT FG OVC002 16/15 A2995 RMK AO2 T01610150
YSJ CYSJ Saint John, CA Saint John Airport 9 16 0.5 12/12 29.85 CYSJ 272000Z 21009G16KT 1/2SM R23/2400V2600FT/N FG VV002 12/12 A2985 RMK FG8 SLP112
GFN YGFN AU Grafton Airport 0 0.56 11/11 29.94 YGFN 272030Z AUTO 00000KT 0900 // SCT002 11/11 Q1014
GAC MHGS Gracias, HN Celaque Airport 6 0.62 28/21 MHGS 272000Z 36006KT 1000 -TSRA BKN036TCU FEW038CB 28/21
KGY YKRY AU Kingaroy Airport 0 0.68 8/8 29.97 YKRY 272054Z AUTO 00000KT 1100 BR OVC001 08/08 Q1015
KC62 6 16 0.75 16/16 29.74 KC62 272055Z AUTO 26006G16KT 3/4SM +RA BKN007 BKN014 OVC025 16/16 A2974 RMK AO2 T01630163
KFZY Fulton, US Oswego County Airport 10 0.75 18/17 29.68 KFZY 272051Z AUTO 33010KT 3/4SM +RA BR SCT004 BKN009 OVC027 18/17 A2968 RMK AO2 P0069
PTH PAPH Port Heiden, US Port Heiden Airport 10 0.75 5/4 30.08 PAPH 272045Z AUTO 24010KT 3/4SM BR OVC002 05/04 A3008 RMK AO2
YZR CYZR Sarnia, CA Chris Hadfield Airport 11 0.75 11/10 29.72 CYZR 272019Z AUTO 36011KT 3/4SM BR VV003 11/10 A2972 RMK VIS VRB 3/8-3 LTNG DIST SW W SLP070
YAI SCCH Chillan, CL Gral. Bernardo O´Higgins Airport 4 0.75 3/3 30.09 SCCH 272000Z 20004KT 1200 BR OVC003 03/03 Q1019
YGK CYGK Kingston, CA Kingston Norman Rogers Airport 8 0.75 14/14 29.71 CYGK 272000Z 15008KT 3/4SM BR BKN002 OVC005 14/14 A2971 RMK SF6SF2 VIS VRB 1/2 - 1 SLP065 DENSITY ALT 600FT
RBR SBRB Rio Branco, BR Rio Branco-Plácido de Castro International Airport 5 0.93 24/24 29.85 SBRB 272013Z 05005KT 1500 -RA VCSH BKN030 FEW033TCU 24/24 Q1011
LYP OPFA Faisalabad, PK Faisalabad International Airport 18 0.93 32/18 29.44 OPFA 272010Z 36018KT 1500 DRDU FEW040 SCT100 32/18 Q0997 TEMPO 31015G35KT 0800 DSTSRA FEW030CB
QRC SCRG Rancagua, CL De La Independencia Airport 4 0.93 9/8 30.03 SCRG 272000Z 23004KT 1500 BR BKN005 OVC033 09/08 Q1017
SCIC Curico, CL General Freire Airport 5 0.93 6/6 30.06 SCIC 272000Z 20005KT 1500 BR OVC003 06/06 Q1018
ROA KROA Roanoke, US Roanoke–Blacksburg Regional Airport 13 1 17/16 29.84 KROA 272052Z 32013KT 1SM TSRA BR BKN019 BKN034CB OVC060 17/16 A2984 RMK AO2 PK WND 24043/2034 WSHFT 2026 TWR VIS 2 LTG DSNT N AND SE RAB25 TSB22 OCNL LTGICCG S-NE TS S-NE MOV NE P0076
KCQX Chatham, US Chatham Municipal Airport 10 18 1 17/15 29.94 KCQX 272052Z AUTO 22010G18KT 1SM BR OVC002 17/16 A2994 RMK AO2 SLP138 T01720156 58006
ISP KISP Islip, US Long Island Mac Arthur Airport 11 19 1 18/17 29.89 KISP 272043Z 19011G19KT 1SM BR OVC004 19/18 A2989 RMK AO2 SFC VIS 3 T01890178
YZV CYZV Sept-Îles, CA Sept-Îles Airport 14 21 1 6/6 29.97 CYZV 272018Z 08014G21KT 1SM R09/P6000FT/N -DZ BR VV003 06/06 A2997 RMK FG8 SLP152
MVY KMVY Martha's Vineyard, US Martha's Vineyard Airport 9 1 17/16 29.94 KMVY 272000Z 21009KT 1SM R24/3500V6000FT BR OVC003 18/17 A2994 RMK AO2 T01780167
KSU ENKB Kvernberget, NO Kristiansund Airport (Kvernberget) 11 1.06 8/7 29.79 ENKB 272020Z AUTO 27011KT 1700 DZ VV004 08/07 Q1009 RMK WIND 745FT 29018KT
KWL ZGKL Guilin City, CN Guilin Liangjiang International Airport 0 1.12 22/22 29.62 ZGKL 272000Z 00000MPS 1800 -RA BR FEW005 BKN020 OVC033 22/22 Q1003 NOSIG
IGU SBFI Foz Do Iguaçu, BR Cataratas International Airport 3 1.24 18/18 29.97 SBFI 272039Z 11003KT 2000 -RA BR VCTS BKN020 FEW035CB OVC060 18/18 Q1015
RAK GMMX Marrakech, MA Menara Airport 19 1.24 29/11 30.03 GMMX 272030Z 16019KT 2000 SA 29/11 Q1017 NOSIG
WST KWST Westerly, US Westerly State Airport 8 1.25 16/15 29.92 KWST 272044Z AUTO 18008KT 1 1/4SM BR OVC002 17/16 A2992 RMK AO2 T01670156
ADT KADH Ada, US Ada Regional Airport 3 1.25 27/12 30.01 KADH 272035Z AUTO 15003KT 1 1/4SM HZ VV007 27/12 A3001 RMK AO2
YPS CYPD Port Hawkesbury, CA Port Hawkesbury Airport 3 1.25 11/11 29.89 CYPD 272025Z AUTO 07003KT 1 1/4SM BR OVC003 11/11 A2989 RMK SLP126
YGP CYGP Gaspé, CA Gaspé (Michel-Pouliot) Airport 10 17 1.25 7/7 29.95 CYGP 272000Z 09010G17KT 1 1/4SM -RA BR OVC002 07/07 A2995 RMK FG3ST6 CIG VRB 001-003 SLP144
CED YCDU AU Ceduna Airport 4 1.3 6/5 30.09 YCDU 272030Z AUTO 02004KT 2100 BR NCD 06/05 Q1019
YHZ CYHZ Halifax, CA Halifax / Stanfield International Airport 11 19 1.5 16/15 29.89 CYHZ 272026Z 21011G19KT 1 1/2SM -DZ BR SCT008 OVC018 16/15 A2989 RMK ST3SC5 SLP127 DENSITY ALT 800FT
YYY CYYY Mont-Joli, CA Mont Joli Airport 18 24 1.5 7/7 29.79 CYYY 272000Z 05018G24KT 1 1/2SM -RA BR OVC002 07/07 A2979 RMK SF8 SLP093
YQY CYQY Sydney, CA Sydney / J.A. Douglas McCurdy Airport 8 1.5 8/8 29.94 CYQY 272000Z 13008KT 1 1/2SM -RA BR BKN003 OVC018 08/08 A2994 RMK ST7SC1 SLP143
IXR VERC Ranchi, IN Birsa Munda Airport 3 1.55 23/22 29.62 VERC 272000Z 29003KT 2500 HZ SCT020 23/22 Q1003 NOSIG